createdAt,value
2023-02-23T00:02:07.427Z,3.06
2023-02-23T00:04:38.402Z,3.15
2023-02-23T00:07:08.564Z,3.22
2023-02-23T00:09:38.780Z,3.09
2023-02-23T00:12:14.091Z,3.14
2023-02-23T00:14:44.183Z,2.99
2023-02-23T00:17:14.952Z,3.17
2023-02-23T00:19:49.449Z,3.07
2023-02-23T00:22:19.650Z,3.16
2023-02-23T00:24:50.322Z,3.16
2023-02-23T00:27:21.250Z,3.14
2023-02-23T00:29:51.602Z,3.22
2023-02-23T00:32:21.831Z,3.33
2023-02-23T00:34:52.430Z,3.35
2023-02-23T00:37:23.148Z,3.27
2023-02-23T00:39:57.096Z,3.16
2023-02-23T00:42:32.236Z,3.09
2023-02-23T00:45:08.239Z,2.99
2023-02-23T00:47:37.206Z,3.01
2023-02-23T00:50:06.517Z,3.08
2023-02-23T00:52:33.685Z,3.10
2023-02-23T00:55:02.089Z,3.07
2023-02-23T00:57:30.445Z,3.19
2023-02-23T00:59:58.915Z,3.03
2023-02-23T01:02:31.718Z,3.32
2023-02-23T01:05:01.805Z,3.37
2023-02-23T01:07:31.874Z,3.11
2023-02-23T01:10:01.982Z,3.03
2023-02-23T01:12:32.013Z,3.06
2023-02-23T01:15:03.634Z,3.20
2023-02-23T01:17:33.815Z,3.05
2023-02-23T01:20:15.677Z,2.99
2023-02-23T01:22:50.137Z,3.06
2023-02-23T01:25:20.555Z,3.14
2023-02-23T01:27:50.617Z,3.08
2023-02-23T01:30:21.926Z,3.02
2023-02-23T01:32:52.476Z,2.98
2023-02-23T01:35:23.539Z,2.82
2023-02-23T01:37:53.607Z,2.82
2023-02-23T01:40:30.286Z,2.95
2023-02-23T01:43:21.090Z,2.94
2023-02-23T01:45:51.276Z,2.79
2023-02-23T01:48:36.682Z,3.08
2023-02-23T01:51:18.560Z,3.00
2023-02-23T01:54:09.947Z,2.77
2023-02-23T01:56:58.140Z,2.84
2023-02-23T01:59:45.950Z,2.79
2023-02-23T02:02:19.300Z,2.78
2023-02-23T02:04:52.266Z,2.84
2023-02-23T02:07:29.343Z,2.65
2023-02-23T02:10:12.601Z,2.64
2023-02-23T02:12:57.870Z,2.67
2023-02-23T02:15:40.183Z,2.66
2023-02-23T02:18:57.269Z,2.65
2023-02-23T02:22:22.231Z,2.70
2023-02-23T02:25:19.588Z,2.66
2023-02-23T02:28:39.222Z,2.66
2023-02-23T02:31:55.773Z,2.69
2023-02-23T02:34:46.667Z,2.58
2023-02-23T02:38:10.906Z,2.67
2023-02-23T02:41:03.888Z,2.69
2023-02-23T02:43:47.684Z,2.60
2023-02-23T02:46:31.238Z,2.72
2023-02-23T02:49:26.720Z,2.62
2023-02-23T02:52:25.496Z,2.63
2023-02-23T02:55:25.742Z,2.54
2023-02-23T02:58:02.368Z,2.65
2023-02-23T03:01:08.603Z,2.73
2023-02-23T03:04:04.934Z,2.58
2023-02-23T03:07:19.606Z,2.59
2023-02-23T03:10:32.390Z,2.50
2023-02-23T03:14:02.263Z,2.49
2023-02-23T03:17:51.069Z,2.38
2023-02-23T03:20:52.097Z,2.37
2023-02-23T03:24:15.561Z,2.55
2023-02-23T03:27:24.192Z,2.39
2023-02-23T03:31:09.675Z,2.36
2023-02-23T03:34:33.359Z,2.26
2023-02-23T03:38:00.382Z,2.14
2023-02-23T03:40:58.805Z,2.08
2023-02-23T03:44:03.528Z,2.25
2023-02-23T03:46:58.070Z,2.11
2023-02-23T03:49:55.919Z,2.07
2023-02-23T03:53:09.825Z,2.28
2023-02-23T03:56:08.648Z,2.11
2023-02-23T03:59:14.171Z,2.04
2023-02-23T04:02:05.416Z,1.94
2023-02-23T04:04:57.326Z,1.92
2023-02-23T04:07:48.538Z,1.81
2023-02-23T04:10:37.177Z,1.75
2023-02-23T04:13:31.704Z,1.77
2023-02-23T04:16:12.230Z,1.74
2023-02-23T04:18:42.761Z,1.63
2023-02-23T04:21:13.001Z,1.66
2023-02-23T04:23:43.645Z,1.77
2023-02-23T04:26:13.766Z,1.87
2023-02-23T04:28:43.919Z,1.77
2023-02-23T04:31:14.018Z,1.66
2023-02-23T04:33:44.239Z,1.67
2023-02-23T04:36:14.280Z,1.53
2023-02-23T04:38:44.429Z,1.51
2023-02-23T04:41:14.431Z,1.66
2023-02-23T04:43:42.903Z,1.79
2023-02-23T04:46:11.443Z,1.62
2023-02-23T04:48:40.225Z,1.57
2023-02-23T04:51:08.487Z,1.41
2023-02-23T04:53:38.388Z,1.32
2023-02-23T04:56:08.261Z,1.32
2023-02-23T04:58:36.546Z,1.46
2023-02-23T05:01:12.517Z,1.30
2023-02-23T05:03:42.595Z,1.19
2023-02-23T05:06:12.861Z,1.15
2023-02-23T05:08:43.287Z,1.11
2023-02-23T05:11:13.905Z,1.09
2023-02-23T05:13:44.025Z,1.07
2023-02-23T05:16:14.185Z,1.00
2023-02-23T05:18:44.286Z,1.08
2023-02-23T05:21:14.554Z,1.04
2023-02-23T05:23:45.373Z,0.95
2023-02-23T05:26:15.868Z,0.92
2023-02-23T05:28:46.063Z,0.90
2023-02-23T05:31:17.563Z,0.87
2023-02-23T05:33:47.908Z,0.82
2023-02-23T05:36:21.942Z,0.77
2023-02-23T05:38:52.049Z,0.76
2023-02-23T05:41:23.851Z,0.73
2023-02-23T05:43:55.956Z,0.67
2023-02-23T05:46:28.076Z,0.65
2023-02-23T05:49:01.622Z,0.68
2023-02-23T05:51:35.025Z,0.65
2023-02-23T05:54:05.784Z,0.62
2023-02-23T05:56:33.847Z,0.56
2023-02-23T05:59:04.951Z,0.51
2023-02-23T06:01:34.997Z,0.48
2023-02-23T06:04:06.354Z,0.39
2023-02-23T06:06:36.576Z,0.34
2023-02-23T06:09:06.925Z,0.33
2023-02-23T06:11:37.211Z,0.42
2023-02-23T06:14:07.302Z,0.49
2023-02-23T06:16:38.231Z,0.48
2023-02-23T06:19:08.036Z,0.48
2023-02-23T06:21:38.227Z,0.49
2023-02-23T06:24:08.393Z,0.69
2023-02-23T06:26:38.561Z,0.66
2023-02-23T06:29:08.590Z,0.66
2023-02-23T06:31:39.678Z,0.68
2023-02-23T06:34:10.288Z,0.78
2023-02-23T06:36:40.304Z,0.79
2023-02-23T06:39:12.957Z,0.98
2023-02-23T06:41:41.738Z,1.16
2023-02-23T06:44:11.847Z,1.14
2023-02-23T06:46:42.024Z,1.18
2023-02-23T06:49:14.418Z,1.23
2023-02-23T06:51:45.315Z,1.34
2023-02-23T06:54:12.604Z,1.33
2023-02-23T06:56:42.745Z,1.45
2023-02-23T06:59:12.786Z,1.54
2023-02-23T07:01:44.913Z,1.51
2023-02-23T07:04:16.665Z,1.51
2023-02-23T07:06:44.479Z,1.62
2023-02-23T07:09:15.619Z,1.71
2023-02-23T07:11:44.998Z,1.62
2023-02-23T07:14:21.514Z,1.74
2023-02-23T07:16:56.582Z,1.72
2023-02-23T07:19:26.718Z,1.69
2023-02-23T07:21:55.517Z,1.71
2023-02-23T07:24:23.670Z,1.78
2023-02-23T07:26:52.457Z,1.79
2023-02-23T07:29:20.974Z,1.81
2023-02-23T07:31:50.189Z,1.87
2023-02-23T07:34:17.900Z,2.04
2023-02-23T07:36:46.161Z,1.98
2023-02-23T07:39:14.657Z,2.03
2023-02-23T07:41:43.047Z,2.16
2023-02-23T07:44:11.373Z,2.16
2023-02-23T07:46:39.866Z,2.19
2023-02-23T07:49:08.159Z,2.40
2023-02-23T07:51:36.528Z,2.43
2023-02-23T07:54:06.635Z,2.41
2023-02-23T07:56:36.994Z,2.47
2023-02-23T07:59:06.537Z,2.52
2023-02-23T08:01:36.616Z,2.53
2023-02-23T08:04:07.119Z,2.53
2023-02-23T08:06:37.160Z,2.49
2023-02-23T08:09:07.897Z,2.58
2023-02-23T08:11:37.847Z,2.73
2023-02-23T08:14:07.942Z,3.10
2023-02-23T08:16:38.033Z,3.22
2023-02-23T08:19:08.117Z,3.28
2023-02-23T08:21:38.355Z,3.27
2023-02-23T08:24:08.989Z,3.37
2023-02-23T08:26:39.253Z,3.35
2023-02-23T08:29:10.233Z,3.37
2023-02-23T08:31:39.669Z,3.32
2023-02-23T08:34:10.441Z,3.34
2023-02-23T08:36:40.693Z,3.49
2023-02-23T08:39:11.734Z,3.67
2023-02-23T08:41:42.582Z,3.75
2023-02-23T08:44:11.821Z,3.75
2023-02-23T08:46:41.980Z,3.77
2023-02-23T08:49:12.103Z,3.91
2023-02-23T08:51:43.122Z,4.02
2023-02-23T08:54:15.257Z,3.98
2023-02-23T08:56:45.310Z,3.97
2023-02-23T08:59:16.449Z,4.05
2023-02-23T09:01:45.287Z,4.11
2023-02-23T09:04:15.344Z,4.12
2023-02-23T09:06:50.266Z,4.22
2023-02-23T09:09:20.010Z,4.28
2023-02-23T09:11:47.637Z,4.32
2023-02-23T09:14:17.796Z,4.40
2023-02-23T09:16:48.559Z,4.52
2023-02-23T09:19:18.240Z,4.59
2023-02-23T09:21:48.324Z,4.59
2023-02-23T09:24:18.689Z,4.66
2023-02-23T09:26:46.455Z,4.96
2023-02-23T09:29:15.171Z,5.33
2023-02-23T09:31:43.882Z,5.00
2023-02-23T09:34:13.468Z,4.96
2023-02-23T09:36:43.257Z,5.19
2023-02-23T09:39:11.717Z,5.40
2023-02-23T09:42:03.853Z,5.50
2023-02-23T09:44:52.587Z,5.53
2023-02-23T09:48:03.044Z,5.88
2023-02-23T09:50:39.388Z,6.39
2023-02-23T09:53:43.127Z,6.60
2023-02-23T09:56:41.340Z,6.77
2023-02-23T09:59:20.854Z,6.93
2023-02-23T10:01:48.845Z,6.63
2023-02-23T10:04:32.487Z,6.88
2023-02-23T10:07:30.306Z,6.90
2023-02-23T10:10:28.168Z,7.27
2023-02-23T10:13:54.060Z,7.51
2023-02-23T10:17:03.987Z,7.76
2023-02-23T10:20:23.377Z,8.12
2023-02-23T10:23:04.778Z,8.32
2023-02-23T10:25:46.251Z,8.54
2023-02-23T10:28:21.966Z,8.55
2023-02-23T10:30:56.871Z,8.70
2023-02-23T10:33:42.561Z,8.91
2023-02-23T10:36:36.088Z,8.85
2023-02-23T10:39:12.479Z,8.96
2023-02-23T10:41:44.432Z,9.12
2023-02-23T10:44:26.662Z,9.01
2023-02-23T10:47:18.017Z,8.93
2023-02-23T10:49:54.914Z,9.12
2023-02-23T10:52:41.866Z,9.19
2023-02-23T10:55:31.049Z,9.20
2023-02-23T10:58:21.471Z,9.16
2023-02-23T11:00:56.003Z,9.17
2023-02-23T11:03:57.695Z,9.25
2023-02-23T11:06:43.668Z,9.38
2023-02-23T11:09:43.197Z,9.28
2023-02-23T11:12:41.996Z,9.43
2023-02-23T11:15:49.479Z,9.58
2023-02-23T11:18:26.522Z,9.64
2023-02-23T11:20:58.519Z,9.73
2023-02-23T11:23:36.690Z,9.56
2023-02-23T11:26:45.717Z,9.57
2023-02-23T11:29:40.542Z,9.71
2023-02-23T11:32:19.714Z,9.83
2023-02-23T11:35:20.499Z,9.75
2023-02-23T11:37:50.645Z,9.84
2023-02-23T11:40:35.018Z,9.73
2023-02-23T11:43:16.721Z,9.91
2023-02-23T11:45:58.482Z,9.84
2023-02-23T11:49:01.889Z,9.71
2023-02-23T11:51:39.873Z,9.48
2023-02-23T11:54:35.608Z,9.52
2023-02-23T11:57:06.363Z,9.52
2023-02-23T11:59:44.962Z,9.42
2023-02-23T12:02:28.713Z,9.64
2023-02-23T12:05:18.320Z,9.76
2023-02-23T12:08:14.846Z,9.76
2023-02-23T12:10:58.167Z,9.92
2023-02-23T12:13:45.402Z,9.87
2023-02-23T12:16:33.597Z,9.82
2023-02-23T12:19:23.027Z,9.88
2023-02-23T12:22:20.267Z,9.71
2023-02-23T12:25:05.144Z,9.69
2023-02-23T12:28:18.815Z,9.83
2023-02-23T12:31:14.427Z,9.77
2023-02-23T12:34:05.355Z,10.12
2023-02-23T12:37:14.350Z,10.25
2023-02-23T12:39:55.056Z,10.23
2023-02-23T12:42:38.300Z,10.15
2023-02-23T12:45:27.327Z,10.03
2023-02-23T12:48:34.902Z,9.81
2023-02-23T12:51:30.432Z,10.11
2023-02-23T12:54:02.201Z,10.09
2023-02-23T12:57:32.470Z,9.94
2023-02-23T13:00:49.511Z,9.95
2023-02-23T13:03:53.017Z,9.83
2023-02-23T13:06:59.582Z,10.02
2023-02-23T13:10:15.299Z,10.14
2023-02-23T13:13:18.019Z,10.37
2023-02-23T13:16:06.607Z,10.23
2023-02-23T13:19:16.798Z,10.21
2023-02-23T13:22:01.827Z,10.03
2023-02-23T13:24:49.769Z,10.14
2023-02-23T13:27:40.412Z,10.12
2023-02-23T13:30:13.506Z,10.03
2023-02-23T13:32:42.098Z,10.15
2023-02-23T13:35:21.795Z,10.17
2023-02-23T13:38:18.055Z,10.15
2023-02-23T13:41:30.454Z,10.18
2023-02-23T13:44:32.437Z,10.17
2023-02-23T13:47:45.670Z,10.04
2023-02-23T13:50:37.811Z,10.01
2023-02-23T13:53:40.187Z,10.02
2023-02-23T13:56:27.237Z,9.93
2023-02-23T13:59:17.240Z,9.85
2023-02-23T14:01:55.245Z,9.83
2023-02-23T14:04:42.528Z,9.72
2023-02-23T14:07:33.020Z,9.81
2023-02-23T14:10:43.169Z,9.76
2023-02-23T14:13:16.573Z,9.71
2023-02-23T14:16:12.192Z,9.59
2023-02-23T14:19:38.357Z,9.53
2023-02-23T14:22:22.268Z,9.31
2023-02-23T14:25:35.512Z,9.38
2023-02-23T14:28:32.583Z,9.19
2023-02-23T14:31:12.717Z,9.19
2023-02-23T14:33:42.778Z,9.22
2023-02-23T14:36:21.611Z,9.19
2023-02-23T14:38:57.342Z,9.20
2023-02-23T14:41:47.116Z,9.10
2023-02-23T14:44:41.416Z,9.06
2023-02-23T14:47:22.425Z,8.98
2023-02-23T14:50:02.733Z,8.93
2023-02-23T14:52:42.748Z,8.75
2023-02-23T14:55:29.253Z,8.71
2023-02-23T14:58:01.790Z,8.74
2023-02-23T15:00:43.906Z,8.53
2023-02-23T15:03:14.058Z,8.33
2023-02-23T15:05:54.937Z,8.30
2023-02-23T15:08:31.271Z,8.36
2023-02-23T15:11:14.818Z,8.25
2023-02-23T15:13:52.298Z,8.12
2023-02-23T15:16:37.972Z,7.93
2023-02-23T15:19:08.196Z,8.03
2023-02-23T15:21:39.844Z,7.81
2023-02-23T15:24:21.420Z,7.87
2023-02-23T15:26:52.677Z,7.78
2023-02-23T15:29:33.912Z,7.59
2023-02-23T15:32:26.510Z,7.55
2023-02-23T15:34:56.226Z,7.50
2023-02-23T15:37:56.587Z,7.38
2023-02-23T15:40:36.784Z,7.40
2023-02-23T15:43:12.238Z,7.28
2023-02-23T15:45:54.753Z,7.33
2023-02-23T15:48:46.205Z,7.24
2023-02-23T15:51:39.978Z,7.13
2023-02-23T15:54:29.892Z,7.10
2023-02-23T15:57:18.201Z,7.04
2023-02-23T15:59:54.658Z,7.04
2023-02-23T16:02:26.094Z,6.99
2023-02-23T16:04:54.046Z,6.98
2023-02-23T16:07:36.289Z,7.00
2023-02-23T16:10:24.633Z,6.91
2023-02-23T16:12:55.673Z,6.90
2023-02-23T16:15:35.542Z,6.88
2023-02-23T16:18:16.638Z,6.86
2023-02-23T16:20:58.079Z,6.84
2023-02-23T16:24:05.907Z,6.81
2023-02-23T16:26:52.078Z,6.80
2023-02-23T16:29:41.626Z,6.80
2023-02-23T16:32:25.036Z,6.78
2023-02-23T16:35:18.105Z,6.77
2023-02-23T16:38:12.774Z,6.76
2023-02-23T16:40:43.042Z,6.72
2023-02-23T16:43:13.190Z,6.69
2023-02-23T16:45:44.654Z,6.68
2023-02-23T16:48:19.442Z,6.67
2023-02-23T16:50:53.831Z,6.64
2023-02-23T16:53:24.010Z,6.67
2023-02-23T16:56:01.073Z,6.66
2023-02-23T16:58:36.152Z,6.65
2023-02-23T17:01:07.226Z,6.64
2023-02-23T17:03:43.724Z,6.63
2023-02-23T17:06:16.089Z,6.61
2023-02-23T17:08:57.234Z,6.60
2023-02-23T17:11:28.071Z,6.60
2023-02-23T17:13:58.080Z,6.58
2023-02-23T17:16:28.264Z,6.60
2023-02-23T17:19:02.061Z,6.60
2023-02-23T17:21:33.947Z,6.58
2023-02-23T17:24:04.402Z,6.57
2023-02-23T17:26:34.557Z,6.57
2023-02-23T17:29:04.601Z,6.56
2023-02-23T17:31:36.142Z,6.56
2023-02-23T17:34:07.333Z,6.56
2023-02-23T17:36:34.511Z,6.56
2023-02-23T17:39:03.373Z,6.55
2023-02-23T17:41:31.097Z,6.56
2023-02-23T17:43:58.347Z,6.56
2023-02-23T17:46:26.753Z,6.58
2023-02-23T17:48:56.240Z,6.57
2023-02-23T17:51:24.090Z,6.57
2023-02-23T17:53:52.346Z,6.56
2023-02-23T17:56:20.861Z,6.53
2023-02-23T17:58:48.948Z,6.55
2023-02-23T18:01:18.127Z,6.54
2023-02-23T18:03:47.854Z,6.53
2023-02-23T18:06:17.354Z,6.55
2023-02-23T18:08:45.924Z,6.58
2023-02-23T18:11:16.562Z,6.54
2023-02-23T18:13:48.175Z,6.53
2023-02-23T18:16:19.641Z,6.57
2023-02-23T18:18:49.423Z,6.55
2023-02-23T18:21:22.490Z,6.57
2023-02-23T18:23:52.249Z,6.64
2023-02-23T18:26:24.430Z,6.59
2023-02-23T18:28:55.985Z,6.56
2023-02-23T18:31:28.551Z,6.60
2023-02-23T18:34:01.639Z,6.61
2023-02-23T18:36:37.645Z,6.58
2023-02-23T18:39:10.807Z,6.58
2023-02-23T18:41:41.821Z,6.56
2023-02-23T18:44:16.681Z,6.56
2023-02-23T18:46:46.905Z,6.56
2023-02-23T18:49:24.759Z,6.54
2023-02-23T18:51:54.881Z,6.53
2023-02-23T18:54:28.329Z,6.62
2023-02-23T18:56:58.430Z,6.58
2023-02-23T18:59:28.512Z,6.59
2023-02-23T19:01:58.600Z,6.62
2023-02-23T19:04:28.739Z,6.61
2023-02-23T19:06:58.774Z,6.67
2023-02-23T19:09:28.840Z,6.67
2023-02-23T19:11:58.935Z,6.68
2023-02-23T19:14:47.999Z,6.73
2023-02-23T19:17:19.193Z,6.62
2023-02-23T19:19:49.233Z,6.59
2023-02-23T19:22:19.259Z,6.58
2023-02-23T19:24:50.103Z,6.62
2023-02-23T19:27:21.816Z,6.57
2023-02-23T19:29:51.926Z,6.53
2023-02-23T19:32:22.163Z,6.51
2023-02-23T19:34:52.292Z,6.60
2023-02-23T19:37:22.418Z,6.58
2023-02-23T19:39:54.017Z,6.63
2023-02-23T19:42:24.275Z,6.62
2023-02-23T19:44:54.792Z,6.72
2023-02-23T19:47:24.920Z,6.65
2023-02-23T19:49:55.065Z,6.72
2023-02-23T19:52:25.172Z,6.69
2023-02-23T19:54:55.265Z,6.71
2023-02-23T19:57:25.332Z,6.75
2023-02-23T19:59:55.419Z,6.66
2023-02-23T20:02:23.906Z,6.63
2023-02-23T20:04:52.391Z,6.65
2023-02-23T20:07:20.710Z,6.58
2023-02-23T20:09:49.076Z,6.56
2023-02-23T20:12:17.750Z,6.92
2023-02-23T20:14:47.361Z,6.85
2023-02-23T20:17:17.760Z,6.76
2023-02-23T20:19:45.880Z,6.67
2023-02-23T20:22:14.332Z,6.66
2023-02-23T20:24:42.947Z,6.68
2023-02-23T20:27:11.599Z,6.68
2023-02-23T20:29:41.684Z,6.62
2023-02-23T20:32:11.810Z,6.71
2023-02-23T20:34:42.183Z,6.67
2023-02-23T20:37:13.044Z,6.72
2023-02-23T20:39:43.134Z,6.62
2023-02-23T20:42:16.677Z,6.50
2023-02-23T20:44:46.807Z,6.44
2023-02-23T20:47:16.926Z,6.31
2023-02-23T20:49:46.965Z,6.18
2023-02-23T20:52:17.196Z,6.06
2023-02-23T20:54:47.230Z,6.20
2023-02-23T20:57:17.270Z,6.05
2023-02-23T20:59:47.324Z,5.98
2023-02-23T21:02:17.372Z,5.83
2023-02-23T21:04:47.440Z,5.77
2023-02-23T21:07:17.558Z,5.72
2023-02-23T21:09:47.646Z,5.90
2023-02-23T21:12:18.044Z,5.65
2023-02-23T21:14:48.988Z,5.71
2023-02-23T21:17:19.657Z,5.66
2023-02-23T21:19:49.736Z,5.77
2023-02-23T21:22:19.979Z,5.68
2023-02-23T21:24:50.040Z,5.48
2023-02-23T21:27:18.849Z,5.41
2023-02-23T21:29:48.245Z,5.42
2023-02-23T21:32:16.921Z,5.46
2023-02-23T21:34:45.968Z,5.51
2023-02-23T21:37:16.372Z,5.46
2023-02-23T21:39:46.740Z,5.46
2023-02-23T21:42:17.219Z,5.57
2023-02-23T21:44:48.298Z,5.58
2023-02-23T21:47:17.574Z,5.49
2023-02-23T21:49:49.255Z,5.36
2023-02-23T21:52:19.411Z,5.28
2023-02-23T21:54:51.880Z,5.27
2023-02-23T21:57:26.274Z,5.24
2023-02-23T21:59:56.744Z,5.21
2023-02-23T22:02:30.648Z,5.16
2023-02-23T22:05:00.889Z,5.18
2023-02-23T22:07:32.464Z,5.29
2023-02-23T22:10:00.994Z,5.27
2023-02-23T22:12:32.755Z,5.23
2023-02-23T22:15:08.338Z,5.35
2023-02-23T22:17:38.886Z,5.35
2023-02-23T22:20:12.419Z,5.28
2023-02-23T22:22:40.254Z,5.23
2023-02-23T22:25:11.476Z,5.18
2023-02-23T22:27:42.859Z,5.18
2023-02-23T22:30:15.770Z,5.31
2023-02-23T22:32:45.654Z,5.17
2023-02-23T22:35:16.136Z,5.23
2023-02-23T22:37:46.245Z,5.22
2023-02-23T22:40:16.798Z,5.16
2023-02-23T22:42:48.488Z,5.23
2023-02-23T22:45:19.091Z,5.10
2023-02-23T22:47:49.088Z,5.30
2023-02-23T22:50:19.356Z,5.30
2023-02-23T22:52:49.536Z,5.18
2023-02-23T22:55:19.433Z,5.14
2023-02-23T22:57:49.638Z,5.27
2023-02-23T23:00:19.858Z,5.11
2023-02-23T23:02:50.215Z,5.14
2023-02-23T23:05:21.752Z,5.18
2023-02-23T23:07:51.937Z,5.09
2023-02-23T23:10:20.224Z,5.23
2023-02-23T23:12:48.926Z,5.29
2023-02-23T23:15:19.313Z,5.22
2023-02-23T23:17:50.030Z,5.36
2023-02-23T23:20:25.990Z,5.39
2023-02-23T23:22:57.342Z,5.22
2023-02-23T23:25:29.647Z,5.24
2023-02-23T23:27:59.617Z,5.24
2023-02-23T23:30:29.358Z,5.16
2023-02-23T23:33:00.118Z,5.10
2023-02-23T23:35:28.745Z,5.12
2023-02-23T23:38:01.718Z,5.12
2023-02-23T23:40:35.807Z,5.17
2023-02-23T23:43:07.807Z,5.29
2023-02-23T23:45:40.673Z,5.40
2023-02-23T23:48:09.967Z,5.18
2023-02-23T23:50:39.865Z,5.07
2023-02-23T23:53:10.582Z,5.09
2023-02-23T23:55:38.491Z,5.05
2023-02-23T23:58:07.064Z,4.99
